sensor_id;sensor_type;location;lat;lon;timestamp;P1;durP1;ratioP1;P2;durP2;ratioP2
10900;SDS011;5503;53.208;10.392;2023-04-29T00:01:54;11.38;;;6.00;;
10900;SDS011;5503;53.208;10.392;2023-04-29T00:04:24;13.40;;;6.75;;
10900;SDS011;5503;53.208;10.392;2023-04-29T00:06:52;10.50;;;5.70;;
10900;SDS011;5503;53.208;10.392;2023-04-29T00:09:20;8.23;;;4.28;;
10900;SDS011;5503;53.208;10.392;2023-04-29T00:11:47;10.88;;;5.32;;
10900;SDS011;5503;53.208;10.392;2023-04-29T00:14:14;11.60;;;5.88;;
10900;SDS011;5503;53.208;10.392;2023-04-29T00:16:41;7.78;;;4.15;;
10900;SDS011;5503;53.208;10.392;2023-04-29T00:19:09;10.52;;;5.70;;
10900;SDS011;5503;53.208;10.392;2023-04-29T00:21:38;13.23;;;5.72;;
10900;SDS011;5503;53.208;10.392;2023-04-29T00:24:05;9.77;;;5.60;;
10900;SDS011;5503;53.208;10.392;2023-04-29T00:26:32;12.20;;;5.25;;
10900;SDS011;5503;53.208;10.392;2023-04-29T00:29:00;8.63;;;5.13;;
10900;SDS011;5503;53.208;10.392;2023-04-29T00:31:27;8.35;;;4.40;;
10900;SDS011;5503;53.208;10.392;2023-04-29T00:33:56;8.82;;;4.53;;
10900;SDS011;5503;53.208;10.392;2023-04-29T00:36:24;9.10;;;5.25;;
10900;SDS011;5503;53.208;10.392;2023-04-29T00:38:53;10.10;;;5.10;;
10900;SDS011;5503;53.208;10.392;2023-04-29T00:41:20;8.98;;;4.85;;
10900;SDS011;5503;53.208;10.392;2023-04-29T00:43:47;12.10;;;5.28;;
10900;SDS011;5503;53.208;10.392;2023-04-29T00:46:14;9.35;;;5.20;;
10900;SDS011;5503;53.208;10.392;2023-04-29T00:48:41;9.38;;;5.00;;
10900;SDS011;5503;53.208;10.392;2023-04-29T00:51:09;9.57;;;5.10;;
10900;SDS011;5503;53.208;10.392;2023-04-29T00:53:36;5.90;;;3.33;;
10900;SDS011;5503;53.208;10.392;2023-04-29T00:56:06;9.40;;;5.03;;
10900;SDS011;5503;53.208;10.392;2023-04-29T00:58:34;8.93;;;4.95;;
10900;SDS011;5503;53.208;10.392;2023-04-29T01:01:03;6.47;;;3.75;;
10900;SDS011;5503;53.208;10.392;2023-04-29T01:03:30;8.65;;;4.75;;
10900;SDS011;5503;53.208;10.392;2023-04-29T01:06:00;7.35;;;4.22;;
10900;SDS011;5503;53.208;10.392;2023-04-29T01:08:36;11.52;;;5.38;;
10900;SDS011;5503;53.208;10.392;2023-04-29T01:11:15;8.75;;;4.72;;
10900;SDS011;5503;53.208;10.392;2023-04-29T01:13:48;9.20;;;5.47;;
10900;SDS011;5503;53.208;10.392;2023-04-29T01:16:17;8.07;;;5.00;;
10900;SDS011;5503;53.208;10.392;2023-04-29T01:18:49;8.73;;;4.78;;
10900;SDS011;5503;53.208;10.392;2023-04-29T01:21:19;8.23;;;4.47;;
10900;SDS011;5503;53.208;10.392;2023-04-29T01:23:49;9.10;;;4.88;;
10900;SDS011;5503;53.208;10.392;2023-04-29T01:26:20;7.88;;;4.72;;
10900;SDS011;5503;53.208;10.392;2023-04-29T01:28:49;7.82;;;4.50;;
10900;SDS011;5503;53.208;10.392;2023-04-29T01:31:22;9.65;;;4.28;;
10900;SDS011;5503;53.208;10.392;2023-04-29T01:33:58;6.97;;;3.78;;
10900;SDS011;5503;53.208;10.392;2023-04-29T01:36:35;9.05;;;5.28;;
10900;SDS011;5503;53.208;10.392;2023-04-29T01:39:13;8.88;;;4.85;;
10900;SDS011;5503;53.208;10.392;2023-04-29T01:41:48;7.35;;;4.43;;
10900;SDS011;5503;53.208;10.392;2023-04-29T01:44:23;6.20;;;3.33;;
10900;SDS011;5503;53.208;10.392;2023-04-29T01:46:55;10.02;;;5.13;;
10900;SDS011;5503;53.208;10.392;2023-04-29T01:49:23;7.53;;;4.68;;
10900;SDS011;5503;53.208;10.392;2023-04-29T01:51:50;9.25;;;4.82;;
10900;SDS011;5503;53.208;10.392;2023-04-29T01:54:19;8.75;;;5.00;;
10900;SDS011;5503;53.208;10.392;2023-04-29T01:56:46;7.03;;;4.13;;
10900;SDS011;5503;53.208;10.392;2023-04-29T01:59:14;9.32;;;5.65;;
10900;SDS011;5503;53.208;10.392;2023-04-29T02:01:41;7.85;;;4.43;;
10900;SDS011;5503;53.208;10.392;2023-04-29T02:04:18;9.15;;;5.32;;
10900;SDS011;5503;53.208;10.392;2023-04-29T02:06:45;8.02;;;4.32;;
10900;SDS011;5503;53.208;10.392;2023-04-29T02:09:12;9.50;;;4.05;;
10900;SDS011;5503;53.208;10.392;2023-04-29T02:11:41;8.60;;;5.15;;
10900;SDS011;5503;53.208;10.392;2023-04-29T02:14:08;9.32;;;4.53;;
10900;SDS011;5503;53.208;10.392;2023-04-29T02:16:36;9.57;;;5.00;;
10900;SDS011;5503;53.208;10.392;2023-04-29T02:19:03;7.93;;;4.63;;
10900;SDS011;5503;53.208;10.392;2023-04-29T02:21:31;8.90;;;4.35;;
10900;SDS011;5503;53.208;10.392;2023-04-29T02:23:59;9.60;;;4.82;;
10900;SDS011;5503;53.208;10.392;2023-04-29T02:26:26;8.65;;;4.38;;
10900;SDS011;5503;53.208;10.392;2023-04-29T02:28:55;7.22;;;4.03;;
10900;SDS011;5503;53.208;10.392;2023-04-29T02:31:22;9.73;;;4.30;;
10900;SDS011;5503;53.208;10.392;2023-04-29T02:33:49;9.18;;;5.03;;
10900;SDS011;5503;53.208;10.392;2023-04-29T02:36:17;8.35;;;4.43;;
10900;SDS011;5503;53.208;10.392;2023-04-29T02:38:44;8.18;;;3.85;;
10900;SDS011;5503;53.208;10.392;2023-04-29T02:41:15;11.32;;;4.82;;
10900;SDS011;5503;53.208;10.392;2023-04-29T02:43:42;10.68;;;4.50;;
10900;SDS011;5503;53.208;10.392;2023-04-29T02:46:11;9.15;;;4.88;;
10900;SDS011;5503;53.208;10.392;2023-04-29T02:48:38;9.65;;;3.60;;
10900;SDS011;5503;53.208;10.392;2023-04-29T02:51:05;7.97;;;4.60;;
10900;SDS011;5503;53.208;10.392;2023-04-29T02:53:33;10.52;;;4.35;;
10900;SDS011;5503;53.208;10.392;2023-04-29T02:56:00;9.13;;;4.95;;
10900;SDS011;5503;53.208;10.392;2023-04-29T02:58:27;7.63;;;4.97;;
10900;SDS011;5503;53.208;10.392;2023-04-29T03:00:55;8.88;;;4.63;;
10900;SDS011;5503;53.208;10.392;2023-04-29T03:03:23;8.27;;;4.90;;
10900;SDS011;5503;53.208;10.392;2023-04-29T03:05:50;7.18;;;4.68;;
10900;SDS011;5503;53.208;10.392;2023-04-29T03:08:17;8.85;;;4.55;;
10900;SDS011;5503;53.208;10.392;2023-04-29T03:10:45;8.68;;;5.25;;
10900;SDS011;5503;53.208;10.392;2023-04-29T03:13:12;10.65;;;4.70;;
10900;SDS011;5503;53.208;10.392;2023-04-29T03:15:39;9.35;;;5.25;;
10900;SDS011;5503;53.208;10.392;2023-04-29T03:18:08;7.50;;;4.53;;
10900;SDS011;5503;53.208;10.392;2023-04-29T03:20:36;8.43;;;5.07;;
10900;SDS011;5503;53.208;10.392;2023-04-29T03:23:03;9.48;;;5.35;;
10900;SDS011;5503;53.208;10.392;2023-04-29T03:25:31;9.20;;;4.47;;
10900;SDS011;5503;53.208;10.392;2023-04-29T03:27:58;8.65;;;5.40;;
10900;SDS011;5503;53.208;10.392;2023-04-29T03:30:25;10.15;;;5.05;;
10900;SDS011;5503;53.208;10.392;2023-04-29T03:32:52;9.07;;;4.63;;
10900;SDS011;5503;53.208;10.392;2023-04-29T03:35:20;8.55;;;4.50;;
10900;SDS011;5503;53.208;10.392;2023-04-29T03:37:48;8.02;;;4.43;;
10900;SDS011;5503;53.208;10.392;2023-04-29T03:40:15;9.82;;;5.50;;
10900;SDS011;5503;53.208;10.392;2023-04-29T03:42:43;9.32;;;4.25;;
10900;SDS011;5503;53.208;10.392;2023-04-29T03:45:10;9.23;;;5.00;;
10900;SDS011;5503;53.208;10.392;2023-04-29T03:47:38;8.63;;;6.03;;
10900;SDS011;5503;53.208;10.392;2023-04-29T03:50:06;8.55;;;4.70;;
10900;SDS011;5503;53.208;10.392;2023-04-29T03:52:33;11.32;;;5.70;;
10900;SDS011;5503;53.208;10.392;2023-04-29T03:55:03;11.07;;;6.22;;
10900;SDS011;5503;53.208;10.392;2023-04-29T03:57:31;9.95;;;5.18;;
10900;SDS011;5503;53.208;10.392;2023-04-29T03:59:58;9.35;;;4.97;;
10900;SDS011;5503;53.208;10.392;2023-04-29T04:02:25;9.30;;;5.68;;
10900;SDS011;5503;53.208;10.392;2023-04-29T04:04:53;11.38;;;5.60;;
10900;SDS011;5503;53.208;10.392;2023-04-29T04:07:20;8.80;;;5.20;;
10900;SDS011;5503;53.208;10.392;2023-04-29T04:09:47;9.05;;;4.95;;
10900;SDS011;5503;53.208;10.392;2023-04-29T04:12:15;9.85;;;5.80;;
10900;SDS011;5503;53.208;10.392;2023-04-29T04:14:42;9.90;;;5.60;;
10900;SDS011;5503;53.208;10.392;2023-04-29T04:17:10;9.93;;;5.10;;
10900;SDS011;5503;53.208;10.392;2023-04-29T04:19:37;9.38;;;5.93;;
10900;SDS011;5503;53.208;10.392;2023-04-29T04:22:04;9.82;;;5.80;;
10900;SDS011;5503;53.208;10.392;2023-04-29T04:24:31;11.90;;;5.15;;
10900;SDS011;5503;53.208;10.392;2023-04-29T04:26:59;11.75;;;6.40;;
10900;SDS011;5503;53.208;10.392;2023-04-29T04:29:27;9.23;;;5.20;;
10900;SDS011;5503;53.208;10.392;2023-04-29T04:31:54;10.82;;;5.65;;
10900;SDS011;5503;53.208;10.392;2023-04-29T04:34:22;10.00;;;5.45;;
10900;SDS011;5503;53.208;10.392;2023-04-29T04:36:50;12.27;;;7.10;;
10900;SDS011;5503;53.208;10.392;2023-04-29T04:39:17;12.90;;;6.30;;
10900;SDS011;5503;53.208;10.392;2023-04-29T04:41:44;12.70;;;6.05;;
10900;SDS011;5503;53.208;10.392;2023-04-29T04:44:12;11.32;;;5.63;;
10900;SDS011;5503;53.208;10.392;2023-04-29T04:46:41;10.35;;;5.60;;
10900;SDS011;5503;53.208;10.392;2023-04-29T04:49:09;11.95;;;5.60;;
10900;SDS011;5503;53.208;10.392;2023-04-29T04:51:36;13.95;;;5.63;;
10900;SDS011;5503;53.208;10.392;2023-04-29T04:54:03;16.02;;;5.45;;
10900;SDS011;5503;53.208;10.392;2023-04-29T04:56:30;13.43;;;6.53;;
10900;SDS011;5503;53.208;10.392;2023-04-29T04:58:58;14.27;;;5.50;;
10900;SDS011;5503;53.208;10.392;2023-04-29T05:01:25;10.63;;;6.13;;
10900;SDS011;5503;53.208;10.392;2023-04-29T05:03:54;13.40;;;6.13;;
10900;SDS011;5503;53.208;10.392;2023-04-29T05:06:22;13.18;;;6.47;;
10900;SDS011;5503;53.208;10.392;2023-04-29T05:08:49;14.27;;;6.68;;
10900;SDS011;5503;53.208;10.392;2023-04-29T05:11:17;12.52;;;6.93;;
10900;SDS011;5503;53.208;10.392;2023-04-29T05:13:44;10.40;;;5.45;;
10900;SDS011;5503;53.208;10.392;2023-04-29T05:16:11;11.82;;;6.10;;
10900;SDS011;5503;53.208;10.392;2023-04-29T05:18:38;10.43;;;6.22;;
10900;SDS011;5503;53.208;10.392;2023-04-29T05:21:09;12.27;;;6.30;;
10900;SDS011;5503;53.208;10.392;2023-04-29T05:23:36;14.65;;;6.78;;
10900;SDS011;5503;53.208;10.392;2023-04-29T05:26:03;11.25;;;6.28;;
10900;SDS011;5503;53.208;10.392;2023-04-29T05:28:31;9.88;;;5.82;;
10900;SDS011;5503;53.208;10.392;2023-04-29T05:30:58;11.15;;;6.28;;
10900;SDS011;5503;53.208;10.392;2023-04-29T05:33:25;18.35;;;8.20;;
10900;SDS011;5503;53.208;10.392;2023-04-29T05:35:53;10.20;;;5.80;;
10900;SDS011;5503;53.208;10.392;2023-04-29T05:38:21;12.65;;;6.95;;
10900;SDS011;5503;53.208;10.392;2023-04-29T05:40:52;11.20;;;6.63;;
10900;SDS011;5503;53.208;10.392;2023-04-29T05:43:20;9.50;;;5.72;;
10900;SDS011;5503;53.208;10.392;2023-04-29T05:45:47;13.25;;;6.05;;
10900;SDS011;5503;53.208;10.392;2023-04-29T05:48:14;12.75;;;7.03;;
10900;SDS011;5503;53.208;10.392;2023-04-29T05:50:41;18.00;;;7.25;;
10900;SDS011;5503;53.208;10.392;2023-04-29T05:53:09;11.82;;;5.85;;
10900;SDS011;5503;53.208;10.392;2023-04-29T05:55:38;10.30;;;5.55;;
10900;SDS011;5503;53.208;10.392;2023-04-29T05:58:08;13.43;;;7.68;;
10900;SDS011;5503;53.208;10.392;2023-04-29T06:00:35;11.20;;;6.38;;
10900;SDS011;5503;53.208;10.392;2023-04-29T06:03:03;10.05;;;4.22;;
10900;SDS011;5503;53.208;10.392;2023-04-29T06:05:30;11.18;;;6.20;;
10900;SDS011;5503;53.208;10.392;2023-04-29T06:07:58;9.52;;;5.55;;
10900;SDS011;5503;53.208;10.392;2023-04-29T06:10:25;10.15;;;5.75;;
10900;SDS011;5503;53.208;10.392;2023-04-29T06:12:53;15.82;;;6.03;;
10900;SDS011;5503;53.208;10.392;2023-04-29T06:15:20;12.10;;;7.10;;
10900;SDS011;5503;53.208;10.392;2023-04-29T06:17:48;12.15;;;6.15;;
10900;SDS011;5503;53.208;10.392;2023-04-29T06:20:15;11.80;;;6.60;;
10900;SDS011;5503;53.208;10.392;2023-04-29T06:22:42;11.95;;;5.93;;
10900;SDS011;5503;53.208;10.392;2023-04-29T06:25:09;9.35;;;5.43;;
10900;SDS011;5503;53.208;10.392;2023-04-29T06:27:38;10.70;;;6.28;;
10900;SDS011;5503;53.208;10.392;2023-04-29T06:30:07;12.73;;;5.88;;
10900;SDS011;5503;53.208;10.392;2023-04-29T06:32:35;11.70;;;5.90;;
10900;SDS011;5503;53.208;10.392;2023-04-29T06:35:03;9.65;;;5.22;;
10900;SDS011;5503;53.208;10.392;2023-04-29T06:37:30;14.63;;;6.72;;
10900;SDS011;5503;53.208;10.392;2023-04-29T06:39:57;9.80;;;5.00;;
10900;SDS011;5503;53.208;10.392;2023-04-29T06:42:25;14.95;;;6.63;;
10900;SDS011;5503;53.208;10.392;2023-04-29T06:44:52;11.70;;;5.32;;
10900;SDS011;5503;53.208;10.392;2023-04-29T06:47:21;11.40;;;7.20;;
10900;SDS011;5503;53.208;10.392;2023-04-29T06:49:48;11.32;;;6.35;;
10900;SDS011;5503;53.208;10.392;2023-04-29T06:52:17;10.70;;;5.53;;
10900;SDS011;5503;53.208;10.392;2023-04-29T06:54:44;11.43;;;6.20;;
10900;SDS011;5503;53.208;10.392;2023-04-29T06:57:11;11.73;;;6.97;;
10900;SDS011;5503;53.208;10.392;2023-04-29T06:59:38;12.73;;;6.93;;
10900;SDS011;5503;53.208;10.392;2023-04-29T07:02:06;11.30;;;5.90;;
10900;SDS011;5503;53.208;10.392;2023-04-29T07:04:34;10.02;;;5.95;;
10900;SDS011;5503;53.208;10.392;2023-04-29T07:07:02;10.77;;;6.28;;
10900;SDS011;5503;53.208;10.392;2023-04-29T07:09:29;10.57;;;5.32;;
10900;SDS011;5503;53.208;10.392;2023-04-29T07:11:56;8.30;;;4.13;;
10900;SDS011;5503;53.208;10.392;2023-04-29T07:14:25;10.07;;;4.65;;
10900;SDS011;5503;53.208;10.392;2023-04-29T07:16:52;9.23;;;5.00;;
10900;SDS011;5503;53.208;10.392;2023-04-29T07:19:20;8.82;;;5.80;;
10900;SDS011;5503;53.208;10.392;2023-04-29T07:21:48;10.02;;;6.40;;
10900;SDS011;5503;53.208;10.392;2023-04-29T07:24:15;13.25;;;6.03;;
10900;SDS011;5503;53.208;10.392;2023-04-29T07:26:42;11.45;;;5.90;;
10900;SDS011;5503;53.208;10.392;2023-04-29T07:29:10;13.40;;;6.40;;
10900;SDS011;5503;53.208;10.392;2023-04-29T07:31:37;10.05;;;5.35;;
10900;SDS011;5503;53.208;10.392;2023-04-29T07:34:04;9.60;;;5.53;;
10900;SDS011;5503;53.208;10.392;2023-04-29T07:36:32;8.77;;;4.72;;
10900;SDS011;5503;53.208;10.392;2023-04-29T07:39:01;10.13;;;5.80;;
10900;SDS011;5503;53.208;10.392;2023-04-29T07:41:28;12.87;;;5.37;;
10900;SDS011;5503;53.208;10.392;2023-04-29T07:43:56;9.48;;;5.20;;
10900;SDS011;5503;53.208;10.392;2023-04-29T07:46:23;8.93;;;4.32;;
10900;SDS011;5503;53.208;10.392;2023-04-29T07:48:50;9.48;;;5.38;;
10900;SDS011;5503;53.208;10.392;2023-04-29T07:51:18;7.40;;;4.50;;
10900;SDS011;5503;53.208;10.392;2023-04-29T07:53:45;6.97;;;4.30;;
10900;SDS011;5503;53.208;10.392;2023-04-29T07:56:14;16.20;;;5.97;;
10900;SDS011;5503;53.208;10.392;2023-04-29T07:58:41;9.20;;;4.00;;
10900;SDS011;5503;53.208;10.392;2023-04-29T08:01:08;7.93;;;4.40;;
10900;SDS011;5503;53.208;10.392;2023-04-29T08:03:36;8.65;;;4.95;;
10900;SDS011;5503;53.208;10.392;2023-04-29T08:06:03;8.53;;;4.20;;
10900;SDS011;5503;53.208;10.392;2023-04-29T08:08:31;6.97;;;3.97;;
10900;SDS011;5503;53.208;10.392;2023-04-29T08:10:58;7.60;;;3.75;;
10900;SDS011;5503;53.208;10.392;2023-04-29T08:13:27;7.10;;;3.33;;
10900;SDS011;5503;53.208;10.392;2023-04-29T08:15:54;5.50;;;3.30;;
10900;SDS011;5503;53.208;10.392;2023-04-29T08:18:21;7.43;;;3.50;;
10900;SDS011;5503;53.208;10.392;2023-04-29T08:20:48;6.28;;;3.17;;
10900;SDS011;5503;53.208;10.392;2023-04-29T08:23:16;7.95;;;4.72;;
10900;SDS011;5503;53.208;10.392;2023-04-29T08:25:43;10.82;;;3.78;;
10900;SDS011;5503;53.208;10.392;2023-04-29T08:28:10;6.70;;;3.80;;
10900;SDS011;5503;53.208;10.392;2023-04-29T08:30:39;10.13;;;3.50;;
10900;SDS011;5503;53.208;10.392;2023-04-29T08:33:06;9.27;;;3.58;;
10900;SDS011;5503;53.208;10.392;2023-04-29T08:35:34;6.53;;;3.47;;
10900;SDS011;5503;53.208;10.392;2023-04-29T08:38:03;6.45;;;3.08;;
10900;SDS011;5503;53.208;10.392;2023-04-29T08:40:33;6.85;;;2.92;;
10900;SDS011;5503;53.208;10.392;2023-04-29T08:43:01;8.00;;;3.53;;
10900;SDS011;5503;53.208;10.392;2023-04-29T08:45:29;9.50;;;4.28;;
10900;SDS011;5503;53.208;10.392;2023-04-29T08:47:59;6.50;;;3.80;;
10900;SDS011;5503;53.208;10.392;2023-04-29T08:50:27;7.63;;;4.03;;
10900;SDS011;5503;53.208;10.392;2023-04-29T08:52:55;6.85;;;3.65;;
10900;SDS011;5503;53.208;10.392;2023-04-29T08:55:23;6.33;;;3.03;;
10900;SDS011;5503;53.208;10.392;2023-04-29T08:57:50;7.28;;;3.50;;
10900;SDS011;5503;53.208;10.392;2023-04-29T09:00:20;8.13;;;3.67;;
10900;SDS011;5503;53.208;10.392;2023-04-29T09:02:50;7.43;;;3.17;;
10900;SDS011;5503;53.208;10.392;2023-04-29T09:05:20;7.20;;;3.28;;
10900;SDS011;5503;53.208;10.392;2023-04-29T09:07:48;7.90;;;3.57;;
10900;SDS011;5503;53.208;10.392;2023-04-29T09:10:17;8.27;;;3.65;;
10900;SDS011;5503;53.208;10.392;2023-04-29T09:12:44;6.50;;;2.92;;
10900;SDS011;5503;53.208;10.392;2023-04-29T09:15:11;12.80;;;4.00;;
10900;SDS011;5503;53.208;10.392;2023-04-29T09:17:39;6.22;;;3.22;;
10900;SDS011;5503;53.208;10.392;2023-04-29T09:20:27;7.87;;;3.43;;
10900;SDS011;5503;53.208;10.392;2023-04-29T09:22:56;6.90;;;3.47;;
10900;SDS011;5503;53.208;10.392;2023-04-29T09:25:25;5.45;;;2.95;;
10900;SDS011;5503;53.208;10.392;2023-04-29T09:27:52;11.02;;;4.13;;
10900;SDS011;5503;53.208;10.392;2023-04-29T09:30:20;6.32;;;3.38;;
10900;SDS011;5503;53.208;10.392;2023-04-29T09:33:04;6.50;;;3.73;;
10900;SDS011;5503;53.208;10.392;2023-04-29T09:35:34;5.07;;;2.70;;
10900;SDS011;5503;53.208;10.392;2023-04-29T09:38:07;7.32;;;3.33;;
10900;SDS011;5503;53.208;10.392;2023-04-29T09:40:39;6.20;;;2.80;;
10900;SDS011;5503;53.208;10.392;2023-04-29T09:43:10;12.38;;;3.65;;
10900;SDS011;5503;53.208;10.392;2023-04-29T09:45:39;6.87;;;3.07;;
10900;SDS011;5503;53.208;10.392;2023-04-29T09:48:08;5.57;;;2.70;;
10900;SDS011;5503;53.208;10.392;2023-04-29T09:50:38;6.50;;;2.65;;
10900;SDS011;5503;53.208;10.392;2023-04-29T09:53:07;6.35;;;3.15;;
10900;SDS011;5503;53.208;10.392;2023-04-29T09:55:34;8.55;;;3.17;;
10900;SDS011;5503;53.208;10.392;2023-04-29T09:58:02;7.43;;;2.97;;
10900;SDS011;5503;53.208;10.392;2023-04-29T10:00:31;5.78;;;2.90;;
10900;SDS011;5503;53.208;10.392;2023-04-29T10:03:00;6.72;;;2.78;;
10900;SDS011;5503;53.208;10.392;2023-04-29T10:05:28;6.55;;;2.97;;
10900;SDS011;5503;53.208;10.392;2023-04-29T10:07:58;5.18;;;2.88;;
10900;SDS011;5503;53.208;10.392;2023-04-29T10:10:26;6.03;;;3.00;;
10900;SDS011;5503;53.208;10.392;2023-04-29T10:12:54;6.85;;;2.85;;
10900;SDS011;5503;53.208;10.392;2023-04-29T10:15:25;4.85;;;2.65;;
10900;SDS011;5503;53.208;10.392;2023-04-29T10:17:57;7.07;;;3.92;;
10900;SDS011;5503;53.208;10.392;2023-04-29T10:20:30;7.53;;;3.28;;
10900;SDS011;5503;53.208;10.392;2023-04-29T10:23:00;6.50;;;2.67;;
10900;SDS011;5503;53.208;10.392;2023-04-29T10:25:27;6.18;;;2.63;;
10900;SDS011;5503;53.208;10.392;2023-04-29T10:27:55;5.75;;;2.70;;
10900;SDS011;5503;53.208;10.392;2023-04-29T10:30:24;5.97;;;3.00;;
10900;SDS011;5503;53.208;10.392;2023-04-29T10:32:51;6.38;;;2.90;;
10900;SDS011;5503;53.208;10.392;2023-04-29T10:35:19;6.00;;;3.17;;
10900;SDS011;5503;53.208;10.392;2023-04-29T10:37:49;5.57;;;2.63;;
10900;SDS011;5503;53.208;10.392;2023-04-29T10:40:21;8.32;;;3.50;;
10900;SDS011;5503;53.208;10.392;2023-04-29T10:42:53;5.70;;;2.60;;
10900;SDS011;5503;53.208;10.392;2023-04-29T10:45:21;9.27;;;3.55;;
10900;SDS011;5503;53.208;10.392;2023-04-29T10:48:13;6.60;;;3.40;;
10900;SDS011;5503;53.208;10.392;2023-04-29T10:53:26;4.97;;;2.63;;
10900;SDS011;5503;53.208;10.392;2023-04-29T10:55:55;6.88;;;3.60;;
10900;SDS011;5503;53.208;10.392;2023-04-29T10:58:34;10.35;;;3.75;;
10900;SDS011;5503;53.208;10.392;2023-04-29T11:01:02;6.27;;;3.30;;
10900;SDS011;5503;53.208;10.392;2023-04-29T11:06:24;7.15;;;4.03;;
10900;SDS011;5503;53.208;10.392;2023-04-29T11:09:06;5.72;;;2.90;;
10900;SDS011;5503;53.208;10.392;2023-04-29T11:11:40;5.63;;;2.83;;
10900;SDS011;5503;53.208;10.392;2023-04-29T11:14:08;5.87;;;2.60;;
10900;SDS011;5503;53.208;10.392;2023-04-29T11:16:36;5.70;;;2.95;;
10900;SDS011;5503;53.208;10.392;2023-04-29T11:19:04;7.28;;;3.22;;
10900;SDS011;5503;53.208;10.392;2023-04-29T11:21:33;6.47;;;3.53;;
10900;SDS011;5503;53.208;10.392;2023-04-29T11:24:01;12.30;;;3.65;;
10900;SDS011;5503;53.208;10.392;2023-04-29T11:26:30;7.53;;;3.53;;
10900;SDS011;5503;53.208;10.392;2023-04-29T11:28:59;7.35;;;3.33;;
10900;SDS011;5503;53.208;10.392;2023-04-29T11:31:29;6.00;;;3.28;;
10900;SDS011;5503;53.208;10.392;2023-04-29T11:33:56;6.57;;;3.08;;
10900;SDS011;5503;53.208;10.392;2023-04-29T11:36:24;7.28;;;4.00;;
10900;SDS011;5503;53.208;10.392;2023-04-29T11:38:52;6.27;;;3.00;;
10900;SDS011;5503;53.208;10.392;2023-04-29T11:41:20;7.53;;;4.05;;
10900;SDS011;5503;53.208;10.392;2023-04-29T11:43:53;6.75;;;3.58;;
10900;SDS011;5503;53.208;10.392;2023-04-29T11:46:23;7.75;;;3.80;;
10900;SDS011;5503;53.208;10.392;2023-04-29T11:48:50;5.95;;;3.00;;
10900;SDS011;5503;53.208;10.392;2023-04-29T11:51:17;5.03;;;2.53;;
10900;SDS011;5503;53.208;10.392;2023-04-29T11:53:45;6.47;;;3.20;;
10900;SDS011;5503;53.208;10.392;2023-04-29T11:56:12;6.43;;;2.85;;
10900;SDS011;5503;53.208;10.392;2023-04-29T11:58:40;6.40;;;3.10;;
10900;SDS011;5503;53.208;10.392;2023-04-29T12:01:08;4.88;;;2.50;;
10900;SDS011;5503;53.208;10.392;2023-04-29T12:03:37;6.17;;;3.07;;
10900;SDS011;5503;53.208;10.392;2023-04-29T12:06:05;5.28;;;2.50;;
10900;SDS011;5503;53.208;10.392;2023-04-29T12:08:32;6.38;;;3.00;;
10900;SDS011;5503;53.208;10.392;2023-04-29T12:10:59;5.70;;;3.10;;
10900;SDS011;5503;53.208;10.392;2023-04-29T12:13:27;4.65;;;2.38;;
10900;SDS011;5503;53.208;10.392;2023-04-29T12:15:55;5.70;;;2.90;;
10900;SDS011;5503;53.208;10.392;2023-04-29T12:18:24;5.57;;;2.55;;
10900;SDS011;5503;53.208;10.392;2023-04-29T12:20:53;7.43;;;2.95;;
10900;SDS011;5503;53.208;10.392;2023-04-29T12:23:21;5.90;;;2.90;;
10900;SDS011;5503;53.208;10.392;2023-04-29T12:25:51;5.45;;;2.90;;
10900;SDS011;5503;53.208;10.392;2023-04-29T12:28:20;8.10;;;3.60;;
10900;SDS011;5503;53.208;10.392;2023-04-29T12:30:47;6.80;;;3.58;;
10900;SDS011;5503;53.208;10.392;2023-04-29T12:33:17;4.93;;;2.40;;
10900;SDS011;5503;53.208;10.392;2023-04-29T12:35:46;6.22;;;2.55;;
10900;SDS011;5503;53.208;10.392;2023-04-29T12:38:16;5.75;;;2.95;;
10900;SDS011;5503;53.208;10.392;2023-04-29T12:40:46;5.93;;;3.17;;
10900;SDS011;5503;53.208;10.392;2023-04-29T12:43:13;6.20;;;2.70;;
10900;SDS011;5503;53.208;10.392;2023-04-29T12:45:40;6.32;;;3.08;;
10900;SDS011;5503;53.208;10.392;2023-04-29T12:48:08;5.72;;;2.92;;
10900;SDS011;5503;53.208;10.392;2023-04-29T12:50:37;5.63;;;2.67;;
10900;SDS011;5503;53.208;10.392;2023-04-29T12:53:05;5.53;;;2.57;;
10900;SDS011;5503;53.208;10.392;2023-04-29T12:55:36;6.13;;;3.20;;
10900;SDS011;5503;53.208;10.392;2023-04-29T12:58:04;7.38;;;3.22;;
10900;SDS011;5503;53.208;10.392;2023-04-29T13:00:33;4.75;;;2.38;;
10900;SDS011;5503;53.208;10.392;2023-04-29T13:03:02;7.57;;;3.30;;
10900;SDS011;5503;53.208;10.392;2023-04-29T13:05:29;5.37;;;3.30;;
10900;SDS011;5503;53.208;10.392;2023-04-29T13:07:56;6.03;;;3.25;;
10900;SDS011;5503;53.208;10.392;2023-04-29T13:10:24;6.85;;;3.40;;
10900;SDS011;5503;53.208;10.392;2023-04-29T13:12:53;6.25;;;2.78;;
10900;SDS011;5503;53.208;10.392;2023-04-29T13:15:20;6.32;;;2.83;;
10900;SDS011;5503;53.208;10.392;2023-04-29T13:17:48;7.00;;;3.37;;
10900;SDS011;5503;53.208;10.392;2023-04-29T13:20:15;7.30;;;3.22;;
10900;SDS011;5503;53.208;10.392;2023-04-29T13:22:42;5.63;;;3.08;;
10900;SDS011;5503;53.208;10.392;2023-04-29T13:25:10;6.70;;;3.63;;
10900;SDS011;5503;53.208;10.392;2023-04-29T13:27:37;6.30;;;2.90;;
10900;SDS011;5503;53.208;10.392;2023-04-29T13:30:07;6.60;;;3.30;;
10900;SDS011;5503;53.208;10.392;2023-04-29T13:32:35;6.97;;;3.20;;
10900;SDS011;5503;53.208;10.392;2023-04-29T13:35:04;5.55;;;3.08;;
10900;SDS011;5503;53.208;10.392;2023-04-29T13:37:32;6.85;;;3.45;;
10900;SDS011;5503;53.208;10.392;2023-04-29T13:39:59;6.50;;;3.70;;
10900;SDS011;5503;53.208;10.392;2023-04-29T13:42:26;7.67;;;3.40;;
10900;SDS011;5503;53.208;10.392;2023-04-29T13:44:53;9.05;;;3.78;;
10900;SDS011;5503;53.208;10.392;2023-04-29T13:47:22;7.60;;;4.40;;
10900;SDS011;5503;53.208;10.392;2023-04-29T13:49:49;6.43;;;3.30;;
10900;SDS011;5503;53.208;10.392;2023-04-29T13:52:17;7.28;;;4.13;;
10900;SDS011;5503;53.208;10.392;2023-04-29T13:54:44;7.03;;;4.07;;
10900;SDS011;5503;53.208;10.392;2023-04-29T13:57:11;6.53;;;3.65;;
10900;SDS011;5503;53.208;10.392;2023-04-29T13:59:39;6.45;;;3.30;;
10900;SDS011;5503;53.208;10.392;2023-04-29T14:02:06;5.18;;;2.70;;
10900;SDS011;5503;53.208;10.392;2023-04-29T14:04:34;5.88;;;2.83;;
10900;SDS011;5503;53.208;10.392;2023-04-29T14:07:03;5.10;;;2.60;;
10900;SDS011;5503;53.208;10.392;2023-04-29T14:09:30;5.07;;;2.88;;
10900;SDS011;5503;53.208;10.392;2023-04-29T14:11:57;6.38;;;2.78;;
10900;SDS011;5503;53.208;10.392;2023-04-29T14:14:24;4.85;;;2.22;;
10900;SDS011;5503;53.208;10.392;2023-04-29T14:16:52;5.25;;;2.45;;
10900;SDS011;5503;53.208;10.392;2023-04-29T14:19:19;5.47;;;2.60;;
10900;SDS011;5503;53.208;10.392;2023-04-29T14:21:47;7.40;;;2.75;;
10900;SDS011;5503;53.208;10.392;2023-04-29T14:24:14;5.60;;;2.85;;
10900;SDS011;5503;53.208;10.392;2023-04-29T14:26:42;5.00;;;2.40;;
10900;SDS011;5503;53.208;10.392;2023-04-29T14:29:09;6.78;;;2.40;;
10900;SDS011;5503;53.208;10.392;2023-04-29T14:31:36;5.67;;;2.63;;
10900;SDS011;5503;53.208;10.392;2023-04-29T14:34:04;5.38;;;2.72;;
10900;SDS011;5503;53.208;10.392;2023-04-29T14:36:31;5.18;;;2.10;;
10900;SDS011;5503;53.208;10.392;2023-04-29T14:39:00;4.68;;;2.13;;
10900;SDS011;5503;53.208;10.392;2023-04-29T14:41:27;5.25;;;2.40;;
10900;SDS011;5503;53.208;10.392;2023-04-29T14:43:55;6.00;;;2.83;;
10900;SDS011;5503;53.208;10.392;2023-04-29T14:46:22;4.50;;;2.15;;
10900;SDS011;5503;53.208;10.392;2023-04-29T14:48:49;4.53;;;1.63;;
10900;SDS011;5503;53.208;10.392;2023-04-29T14:51:17;5.05;;;2.20;;
10900;SDS011;5503;53.208;10.392;2023-04-29T14:53:44;5.50;;;1.55;;
10900;SDS011;5503;53.208;10.392;2023-04-29T14:56:13;3.83;;;1.97;;